Erenhot, China
Current Conditions -  °F | °C
As of 11:00 PM on Thursday 23 Oct 2014 (Local Time) from ZBHH Reporting Station
Clear Clear  
Wind Chill: 42°   Ceiling: Unl
Heat Index: 45°   Visibility: 5mi
Dew Point: 32°   Wind: 4mph
Humidity: 61%   Direction: 40°NE
Pressure: 29.91"   Gusts: NA
Location:  43.66°N, 111.96°E
Report Text: ZBHH 231500Z 04002MPS 360V070 8000 NSC 07/00 Q1013 NOSIG
Loading
Personal Weather Stations






























Interactive Weather Map
Tropical Storm Tracking
New forecast layout! Learn more

10-Day Weather Forecast

Advertisements
Track Severe Weather on mobile